createdAt,value
2022-09-09T00:01:32.803Z,0.20
2022-09-09T00:04:12.468Z,0.20
2022-09-09T00:06:48.821Z,0.38
2022-09-09T00:09:19.932Z,0.40
2022-09-09T00:11:53.823Z,0.30
2022-09-09T00:14:29.642Z,0.30
2022-09-09T00:17:03.391Z,0.10
2022-09-09T00:19:41.459Z,0.10
2022-09-09T00:22:18.478Z,0.15
2022-09-09T00:24:49.209Z,0.10
2022-09-09T00:27:31.053Z,0.20
2022-09-09T00:30:04.173Z,0.20
2022-09-09T00:32:34.345Z,0.10
2022-09-09T00:35:17.102Z,0.20
2022-09-09T00:37:47.092Z,0.20
2022-09-09T00:40:25.080Z,0.28
2022-09-09T00:43:03.533Z,0.10
2022-09-09T00:45:54.332Z,0.13
2022-09-09T00:48:30.381Z,0.30
2022-09-09T00:51:05.699Z,0.30
2022-09-09T00:53:43.274Z,0.32
2022-09-09T00:56:16.153Z,0.40
2022-09-09T00:58:52.860Z,0.30
2022-09-09T01:01:21.602Z,0.10
2022-09-09T01:03:55.640Z,0.43
2022-09-09T01:06:32.525Z,0.20
2022-09-09T01:09:12.707Z,0.20
2022-09-09T01:12:01.690Z,0.30
2022-09-09T01:14:42.208Z,0.20
2022-09-09T01:17:19.754Z,0.30
2022-09-09T01:20:05.630Z,0.22
2022-09-09T01:22:51.427Z,0.40
2022-09-09T01:25:45.128Z,0.20
2022-09-09T01:28:29.689Z,0.30
2022-09-09T01:31:05.745Z,0.60
2022-09-09T01:33:41.144Z,0.40
2022-09-09T01:36:17.321Z,0.45
2022-09-09T01:38:50.703Z,0.43
2022-09-09T01:41:20.569Z,0.32
2022-09-09T01:44:24.038Z,0.50
2022-09-09T01:49:22.976Z,0.35
2022-09-09T01:51:55.013Z,0.20
2022-09-09T01:54:34.729Z,0.30
2022-09-09T01:57:17.946Z,0.20
2022-09-09T01:59:57.198Z,0.20
2022-09-09T02:02:32.932Z,0.20
2022-09-09T02:05:21.773Z,0.40
2022-09-09T02:07:53.981Z,0.30
2022-09-09T02:13:17.422Z,0.20
2022-09-09T02:15:54.917Z,0.25
2022-09-09T02:18:29.257Z,0.30
2022-09-09T02:21:00.182Z,0.35
2022-09-09T02:23:30.335Z,0.25
2022-09-09T02:26:00.921Z,0.38
2022-09-09T02:28:32.953Z,0.70
2022-09-09T02:31:03.694Z,0.73
2022-09-09T02:33:43.974Z,0.50
2022-09-09T02:36:14.772Z,0.60
2022-09-09T02:38:51.702Z,0.47
2022-09-09T02:41:26.775Z,0.50
2022-09-09T02:43:57.637Z,0.65
2022-09-09T02:46:38.442Z,0.50
2022-09-09T02:49:12.496Z,0.52
2022-09-09T02:51:53.743Z,0.80
2022-09-09T02:54:29.580Z,0.60
2022-09-09T02:56:58.600Z,0.55
2022-09-09T02:59:36.793Z,0.50
2022-09-09T03:02:07.323Z,0.77
2022-09-09T03:04:37.780Z,0.43
2022-09-09T03:07:08.022Z,0.40
2022-09-09T03:09:37.364Z,0.50
2022-09-09T03:12:06.636Z,0.75
2022-09-09T03:14:36.879Z,0.82
2022-09-09T03:17:10.464Z,0.40
2022-09-09T03:19:46.621Z,0.60
2022-09-09T03:22:15.921Z,0.60
2022-09-09T03:24:47.871Z,0.45
2022-09-09T03:27:17.082Z,0.68
2022-09-09T03:29:46.342Z,0.40
2022-09-09T03:32:23.719Z,0.40
2022-09-09T03:34:53.361Z,0.65
2022-09-09T03:37:23.660Z,0.68
2022-09-09T03:39:55.626Z,0.57
2022-09-09T03:42:25.760Z,0.55
2022-09-09T03:44:59.089Z,0.50
2022-09-09T03:47:30.337Z,0.50
2022-09-09T03:50:09.663Z,0.45
2022-09-09T03:52:41.919Z,0.47
2022-09-09T03:55:20.144Z,0.43
2022-09-09T03:57:49.285Z,0.28
2022-09-09T04:00:18.081Z,0.50
2022-09-09T04:02:55.421Z,0.85
2022-09-09T04:05:24.242Z,0.52
2022-09-09T04:07:53.788Z,0.70
2022-09-09T04:10:23.561Z,0.38
2022-09-09T04:12:52.454Z,0.70
2022-09-09T04:15:21.447Z,0.63
2022-09-09T04:17:51.106Z,0.40
2022-09-09T04:20:21.366Z,0.43
2022-09-09T04:22:50.675Z,0.60
2022-09-09T04:25:19.791Z,0.50
2022-09-09T04:27:49.525Z,1.25
2022-09-09T04:30:18.664Z,0.60
2022-09-09T04:32:47.922Z,0.90
2022-09-09T04:35:17.047Z,0.68
2022-09-09T04:37:47.437Z,1.00
2022-09-09T04:40:16.519Z,0.63
2022-09-09T04:42:46.093Z,0.57
2022-09-09T04:45:16.730Z,0.77
2022-09-09T04:47:45.620Z,0.60
2022-09-09T04:50:14.543Z,0.70
2022-09-09T04:52:44.024Z,0.60
2022-09-09T04:55:14.992Z,0.85
2022-09-09T04:57:46.527Z,1.40
2022-09-09T05:00:18.278Z,0.88
2022-09-09T05:02:47.500Z,1.00
2022-09-09T05:05:16.299Z,0.60
2022-09-09T05:07:49.153Z,0.70
2022-09-09T05:10:19.618Z,0.85
2022-09-09T05:12:55.963Z,0.70
2022-09-09T05:15:28.138Z,0.70
2022-09-09T05:18:00.521Z,0.60
2022-09-09T05:20:31.917Z,0.80
2022-09-09T05:23:01.302Z,1.02
2022-09-09T05:25:33.566Z,0.63
2022-09-09T05:28:02.399Z,0.57
2022-09-09T05:30:31.160Z,0.50
2022-09-09T05:33:02.545Z,0.47
2022-09-09T05:35:31.317Z,0.60
2022-09-09T05:38:02.951Z,0.60
2022-09-09T05:40:33.436Z,0.47
2022-09-09T05:43:04.262Z,0.47
2022-09-09T05:45:33.139Z,0.85
2022-09-09T05:48:03.094Z,0.52
2022-09-09T05:50:32.943Z,0.40
2022-09-09T05:53:01.625Z,0.28
2022-09-09T05:55:33.200Z,0.40
2022-09-09T05:58:02.436Z,0.45
2022-09-09T06:00:32.801Z,0.30
2022-09-09T06:03:02.559Z,0.47
2022-09-09T06:05:31.550Z,0.30
2022-09-09T06:08:01.482Z,0.37
2022-09-09T06:10:30.316Z,0.38
2022-09-09T06:13:00.648Z,0.20
2022-09-09T06:15:31.455Z,0.45
2022-09-09T06:18:00.163Z,0.30
2022-09-09T06:20:31.802Z,0.32
2022-09-09T06:23:00.784Z,0.40
2022-09-09T06:25:29.911Z,0.30
2022-09-09T06:28:00.025Z,0.30
2022-09-09T06:30:28.968Z,0.20
2022-09-09T06:32:59.282Z,0.20
2022-09-09T06:35:28.206Z,0.20
2022-09-09T06:37:57.505Z,0.30
2022-09-09T06:40:26.212Z,0.50
2022-09-09T06:42:55.246Z,0.30
2022-09-09T06:45:38.487Z,0.47
2022-09-09T06:48:08.285Z,0.90
2022-09-09T06:50:37.339Z,0.20
2022-09-09T06:53:06.576Z,0.30
2022-09-09T06:55:36.236Z,0.20
2022-09-09T06:58:10.958Z,0.10
2022-09-09T07:00:41.913Z,0.13
2022-09-09T07:03:12.190Z,0.10
2022-09-09T07:05:41.759Z,0.20
2022-09-09T07:08:11.018Z,0.30
2022-09-09T07:10:41.416Z,0.10
2022-09-09T07:13:11.427Z,0.20
2022-09-09T07:15:41.519Z,0.20
2022-09-09T07:18:11.447Z,0.20
2022-09-09T07:20:40.379Z,0.17
2022-09-09T07:23:09.128Z,0.20
2022-09-09T07:25:37.836Z,0.30
2022-09-09T07:28:08.762Z,0.30
2022-09-09T07:33:08.043Z,0.30
2022-09-09T07:35:38.224Z,0.20
2022-09-09T07:38:07.826Z,0.20
2022-09-09T07:40:37.722Z,0.32
2022-09-09T07:43:06.507Z,0.20
2022-09-09T07:45:37.018Z,0.20
2022-09-09T07:48:07.957Z,0.10
2022-09-09T07:50:36.746Z,0.20
2022-09-09T07:53:07.446Z,0.30
2022-09-09T07:58:05.084Z,0.10
2022-09-09T08:00:34.504Z,0.10
2022-09-09T08:03:03.630Z,0.32
2022-09-09T08:05:34.396Z,0.20
2022-09-09T08:08:04.942Z,0.20
2022-09-09T08:10:33.925Z,0.20
2022-09-09T08:13:17.281Z,0.10
2022-09-09T08:15:48.254Z,0.10
2022-09-09T08:18:17.045Z,0.10
2022-09-09T08:20:48.725Z,0.30
2022-09-09T08:23:17.522Z,0.10
2022-09-09T08:25:47.157Z,0.10
2022-09-09T08:28:16.619Z,0.10
2022-09-09T08:30:45.257Z,0.15
2022-09-09T08:33:13.862Z,0.20
2022-09-09T08:35:54.400Z,0.10
2022-09-09T08:38:23.483Z,0.10
2022-09-09T08:52:33.220Z,0.10
2022-09-09T08:55:13.639Z,0.10
2022-09-09T08:57:42.637Z,0.10
2022-09-09T09:00:13.337Z,0.10
2022-09-09T09:02:51.757Z,0.00
2022-09-09T09:05:28.820Z,0.10
2022-09-09T09:08:10.978Z,0.00
2022-09-09T09:10:49.377Z,0.00
2022-09-09T09:13:25.979Z,0.10
2022-09-09T09:16:02.630Z,0.10
2022-09-09T09:18:31.497Z,0.10
2022-09-09T09:21:07.878Z,0.10
2022-09-09T09:23:45.401Z,0.10
2022-09-09T09:26:14.499Z,0.10
2022-09-09T09:28:44.739Z,0.17
2022-09-09T09:31:17.673Z,0.10
2022-09-09T09:33:52.119Z,0.10
2022-09-09T09:36:23.317Z,0.10
2022-09-09T09:41:48.959Z,0.10
2022-09-09T09:44:26.297Z,0.10
2022-09-09T09:46:55.657Z,0.10
2022-09-09T09:49:24.283Z,0.10
2022-09-09T09:51:53.802Z,0.00
2022-09-09T09:54:30.180Z,0.17
2022-09-09T09:57:11.798Z,0.10
2022-09-09T09:59:41.899Z,0.10
2022-09-09T10:02:19.101Z,0.10
2022-09-09T10:04:51.410Z,0.10
2022-09-09T10:07:22.858Z,0.10
2022-09-09T10:09:57.601Z,0.10
2022-09-09T10:12:40.539Z,0.10
2022-09-09T10:15:26.058Z,0.00
2022-09-09T10:18:07.243Z,0.10
2022-09-09T10:23:24.021Z,0.10
2022-09-09T10:26:07.580Z,0.10
2022-09-09T10:28:55.677Z,0.10
2022-09-09T10:31:34.157Z,0.08
2022-09-09T10:34:16.180Z,0.28
2022-09-09T10:36:50.379Z,0.10
2022-09-09T10:39:33.665Z,0.10
2022-09-09T10:42:08.460Z,0.05
2022-09-09T10:44:53.279Z,0.40
2022-09-09T10:47:36.478Z,0.10
2022-09-09T10:50:21.816Z,0.10
2022-09-09T10:53:02.747Z,0.10
2022-09-09T10:55:41.471Z,0.08
2022-09-09T10:58:18.200Z,0.00
2022-09-09T11:00:52.818Z,0.40
2022-09-09T11:03:27.886Z,0.00
2022-09-09T11:06:00.052Z,0.00
2022-09-09T11:08:31.277Z,0.10
2022-09-09T11:11:05.425Z,0.00
2022-09-09T11:13:42.199Z,0.00
2022-09-09T11:16:24.897Z,0.10
2022-09-09T11:19:01.102Z,0.10
2022-09-09T11:21:34.079Z,0.17
2022-09-09T11:24:06.381Z,0.00
2022-09-09T11:26:41.482Z,0.10
2022-09-09T11:29:39.616Z,0.05
2022-09-09T11:32:22.945Z,0.00
2022-09-09T11:34:59.121Z,0.17
2022-09-09T11:37:54.718Z,0.47
2022-09-09T11:40:26.460Z,0.20
2022-09-09T11:43:07.168Z,0.00
2022-09-09T11:45:39.259Z,0.00
2022-09-09T11:48:08.384Z,0.10
2022-09-09T11:50:39.177Z,0.10
2022-09-09T11:53:24.848Z,0.10
2022-09-09T11:56:14.162Z,0.10
2022-09-09T11:58:56.865Z,0.10
2022-09-09T12:01:36.203Z,0.10
2022-09-09T12:04:21.834Z,0.08
2022-09-09T12:06:55.903Z,0.10
2022-09-09T12:09:34.365Z,0.10
2022-09-09T12:12:25.818Z,0.10
2022-09-09T12:15:00.483Z,0.10
2022-09-09T12:17:32.881Z,0.30
2022-09-09T12:20:13.863Z,0.10
2022-09-09T12:23:03.344Z,0.10
2022-09-09T12:25:52.380Z,0.20
2022-09-09T12:28:23.205Z,0.00
2022-09-09T12:30:59.386Z,0.10
2022-09-09T12:33:38.090Z,0.10
2022-09-09T12:36:12.980Z,0.10
2022-09-09T12:38:43.429Z,0.10
2022-09-09T12:41:22.436Z,0.10
2022-09-09T12:43:52.303Z,0.10
2022-09-09T12:46:32.544Z,0.10
2022-09-09T12:49:03.227Z,0.10
2022-09-09T12:51:34.138Z,0.10
2022-09-09T12:54:04.508Z,0.10
2022-09-09T12:56:37.320Z,0.10
2022-09-09T12:59:06.063Z,0.00
2022-09-09T13:01:35.861Z,0.10
2022-09-09T13:04:23.373Z,0.20
2022-09-09T13:06:53.402Z,0.10
2022-09-09T13:09:22.466Z,0.00
2022-09-09T13:11:57.525Z,0.10
2022-09-09T13:14:33.668Z,0.20
2022-09-09T13:17:04.427Z,0.10
2022-09-09T13:19:39.130Z,0.28
2022-09-09T13:22:15.488Z,0.10
2022-09-09T13:24:44.305Z,0.10
2022-09-09T13:27:32.086Z,0.10
2022-09-09T13:30:00.920Z,0.10
2022-09-09T13:32:30.648Z,0.10
2022-09-09T13:35:02.640Z,0.10
2022-09-09T13:37:35.710Z,0.10
2022-09-09T13:40:07.394Z,0.10
2022-09-09T13:42:43.768Z,0.30
2022-09-09T13:45:21.768Z,0.10
2022-09-09T13:47:53.846Z,0.10
2022-09-09T13:50:26.002Z,0.10
2022-09-09T13:52:59.488Z,0.10
2022-09-09T13:55:30.371Z,0.10
2022-09-09T14:00:31.569Z,0.10
2022-09-09T14:03:02.411Z,0.28
2022-09-09T14:05:34.366Z,0.10
2022-09-09T14:08:05.469Z,0.15
2022-09-09T14:13:02.800Z,0.08
2022-09-09T14:15:31.562Z,0.10
2022-09-09T14:18:00.513Z,0.20
2022-09-09T14:20:29.295Z,0.10
2022-09-09T14:23:03.381Z,0.30
2022-09-09T14:25:32.763Z,0.00
2022-09-09T14:28:01.667Z,0.10
2022-09-09T14:30:30.444Z,0.10
2022-09-09T14:32:59.266Z,0.20
2022-09-09T14:35:28.134Z,0.10
2022-09-09T14:37:57.688Z,0.10
2022-09-09T14:40:27.931Z,0.10
2022-09-09T14:42:57.666Z,0.10
2022-09-09T14:45:27.602Z,0.57
2022-09-09T14:47:56.946Z,0.10
2022-09-09T14:50:26.449Z,0.05
2022-09-09T14:52:55.209Z,0.10
2022-09-09T14:55:23.808Z,0.10
2022-09-09T14:57:54.078Z,0.30
2022-09-09T15:00:23.135Z,0.10
2022-09-09T15:02:55.120Z,0.10
2022-09-09T15:05:25.470Z,0.10
2022-09-09T15:07:54.133Z,0.10
2022-09-09T15:10:22.880Z,0.10
2022-09-09T15:12:51.518Z,0.28
2022-09-09T15:15:21.989Z,0.10
2022-09-09T15:17:50.769Z,0.10
2022-09-09T15:20:19.431Z,0.20
2022-09-09T15:22:48.139Z,0.10
2022-09-09T15:25:18.521Z,0.68
2022-09-09T15:27:47.547Z,0.00
2022-09-09T15:30:16.359Z,0.10
2022-09-09T15:32:46.501Z,0.00
2022-09-09T15:35:15.357Z,0.10
2022-09-09T15:37:44.046Z,0.13
2022-09-09T15:40:13.281Z,0.00
2022-09-09T15:42:41.896Z,0.00
2022-09-09T15:45:11.588Z,0.20
2022-09-09T15:47:40.608Z,0.00
2022-09-09T15:50:10.887Z,0.05
2022-09-09T15:52:39.659Z,0.10
2022-09-09T15:55:09.661Z,0.00
2022-09-09T15:57:38.559Z,0.00
2022-09-09T16:00:08.610Z,0.10
2022-09-09T16:02:38.118Z,0.10
2022-09-09T16:05:07.828Z,0.10
2022-09-09T16:07:38.227Z,0.10
2022-09-09T16:10:08.728Z,0.10
2022-09-09T16:12:37.812Z,0.40
2022-09-09T16:15:07.831Z,0.40
2022-09-09T16:17:38.939Z,0.30
2022-09-09T16:22:41.290Z,0.10
2022-09-09T16:25:11.431Z,0.10
2022-09-09T16:27:40.158Z,0.10
2022-09-09T16:30:10.056Z,0.10
2022-09-09T16:32:39.748Z,0.10
2022-09-09T16:35:09.323Z,0.10
2022-09-09T16:37:39.386Z,0.15
2022-09-09T16:40:10.585Z,0.20
2022-09-09T16:42:39.758Z,0.10
2022-09-09T16:45:09.235Z,0.20
2022-09-09T16:47:37.954Z,0.10
2022-09-09T16:50:07.519Z,0.10
2022-09-09T16:52:36.347Z,0.10
2022-09-09T16:55:07.194Z,0.10
2022-09-09T16:57:36.038Z,0.20
2022-09-09T17:00:07.976Z,0.10
2022-09-09T17:02:36.875Z,0.13
2022-09-09T17:05:06.266Z,0.10
2022-09-09T17:07:35.007Z,0.28
2022-09-09T17:10:03.645Z,0.32
2022-09-09T17:12:34.444Z,0.20
2022-09-09T17:15:04.422Z,0.32
2022-09-09T17:17:33.599Z,0.20
2022-09-09T17:20:03.583Z,0.20
2022-09-09T17:22:32.114Z,0.20
2022-09-09T17:25:00.539Z,0.20
2022-09-09T17:27:29.076Z,0.30
2022-09-09T17:29:59.490Z,0.10
2022-09-09T17:32:28.099Z,0.30
2022-09-09T17:34:56.853Z,0.30
2022-09-09T17:37:25.347Z,0.20
2022-09-09T17:39:53.806Z,0.20
2022-09-09T17:42:22.562Z,0.10
2022-09-09T17:44:51.131Z,0.30
2022-09-09T17:47:21.277Z,0.20
2022-09-09T17:49:49.958Z,0.20
2022-09-09T17:52:18.578Z,0.20
2022-09-09T17:54:47.247Z,0.20
2022-09-09T17:57:18.207Z,0.40
2022-09-09T17:59:46.949Z,0.60
2022-09-09T18:02:15.699Z,0.20
2022-09-09T18:04:47.568Z,0.25
2022-09-09T18:07:16.504Z,0.20
2022-09-09T18:09:44.884Z,0.10
2022-09-09T18:12:13.269Z,0.38
2022-09-09T18:14:41.930Z,0.22
2022-09-09T18:17:11.250Z,0.13
2022-09-09T18:19:39.967Z,0.20
2022-09-09T18:22:10.091Z,0.30
2022-09-09T18:24:39.027Z,0.15
2022-09-09T18:27:07.847Z,0.28
2022-09-09T18:29:36.449Z,0.20
2022-09-09T18:32:05.187Z,0.17
2022-09-09T18:34:33.967Z,0.38
2022-09-09T18:37:02.650Z,0.20
2022-09-09T18:39:33.042Z,0.10
2022-09-09T18:42:02.832Z,0.10
2022-09-09T18:44:33.588Z,0.20
2022-09-09T18:47:03.890Z,0.30
2022-09-09T18:49:33.498Z,0.20
2022-09-09T18:52:02.938Z,0.40
2022-09-09T18:54:34.527Z,0.25
2022-09-09T18:57:03.481Z,0.10
2022-09-09T18:59:32.300Z,0.20
2022-09-09T19:02:01.008Z,0.10
2022-09-09T19:04:29.813Z,0.20
2022-09-09T19:06:59.074Z,0.30
2022-09-09T19:09:29.753Z,0.10
2022-09-09T19:12:01.294Z,0.30
2022-09-09T19:14:30.652Z,0.10
2022-09-09T19:16:59.850Z,0.13
2022-09-09T19:19:32.549Z,0.10
2022-09-09T19:22:02.227Z,0.20
2022-09-09T19:24:32.495Z,0.30
2022-09-09T19:27:04.587Z,0.30
2022-09-09T19:29:36.787Z,0.40
2022-09-09T19:34:54.308Z,0.30
2022-09-09T19:37:22.919Z,0.32
2022-09-09T19:39:52.330Z,0.20
2022-09-09T19:42:22.561Z,0.40
2022-09-09T19:44:51.491Z,0.60
2022-09-09T19:47:20.730Z,0.30
2022-09-09T19:49:50.627Z,0.30
2022-09-09T19:52:20.347Z,0.40
2022-09-09T19:54:49.167Z,0.45
2022-09-09T19:57:19.829Z,0.20
2022-09-09T19:59:50.061Z,0.50
2022-09-09T20:02:18.726Z,0.63
2022-09-09T20:04:47.327Z,0.85
2022-09-09T20:07:16.212Z,1.13
2022-09-09T20:09:44.761Z,1.48
2022-09-09T20:12:13.258Z,2.47
2022-09-09T20:14:41.988Z,1.38
2022-09-09T20:17:12.307Z,1.05
2022-09-09T20:19:41.007Z,0.68
2022-09-09T20:22:09.829Z,0.50
2022-09-09T20:24:38.549Z,0.50
2022-09-09T20:27:08.469Z,0.32
2022-09-09T20:29:38.030Z,0.52
2022-09-09T20:32:07.250Z,0.40
2022-09-09T20:34:37.279Z,0.35
2022-09-09T20:37:06.127Z,0.60
2022-09-09T20:39:36.137Z,0.60
2022-09-09T20:42:05.509Z,0.20
2022-09-09T20:44:34.417Z,1.17
2022-09-09T20:47:04.389Z,0.45
2022-09-09T20:49:35.407Z,0.32
2022-09-09T20:52:06.107Z,1.23
2022-09-09T20:54:36.108Z,0.45
2022-09-09T20:57:04.867Z,0.30
2022-09-09T20:59:34.957Z,0.30
2022-09-09T21:02:03.704Z,0.55
2022-09-09T21:04:32.868Z,0.43
2022-09-09T21:07:02.708Z,0.40
2022-09-09T21:09:32.769Z,0.20
2022-09-09T21:12:01.450Z,0.40
2022-09-09T21:14:30.029Z,0.20
2022-09-09T21:16:58.790Z,0.40
2022-09-09T21:19:27.768Z,0.30
2022-09-09T21:21:57.328Z,0.60
2022-09-09T21:24:25.808Z,0.40
2022-09-09T21:26:57.167Z,0.30
2022-09-09T21:29:25.810Z,0.65
2022-09-09T21:31:55.896Z,0.57
2022-09-09T21:34:24.754Z,0.70
2022-09-09T21:36:53.687Z,0.65
2022-09-09T21:39:22.526Z,0.47
2022-09-09T21:41:51.052Z,0.73
2022-09-09T21:44:21.387Z,0.75
2022-09-09T21:46:50.112Z,0.60
2022-09-09T21:49:18.629Z,0.65
2022-09-09T21:51:47.947Z,0.40
2022-09-09T21:54:16.511Z,0.40
2022-09-09T21:56:45.028Z,0.40
2022-09-09T21:59:14.669Z,0.60
2022-09-09T22:01:44.825Z,0.50
2022-09-09T22:04:13.552Z,0.80
2022-09-09T22:06:42.568Z,0.65
2022-09-09T22:09:11.533Z,0.73
2022-09-09T22:11:40.288Z,0.80
2022-09-09T22:14:08.976Z,0.57
2022-09-09T22:16:37.553Z,0.88
2022-09-09T22:19:07.937Z,0.50
2022-09-09T22:21:36.723Z,0.93
2022-09-09T22:24:06.798Z,0.77
2022-09-09T22:26:37.214Z,0.43
2022-09-09T22:29:07.033Z,0.80
2022-09-09T22:31:36.707Z,0.88
2022-09-09T22:34:07.581Z,0.60
2022-09-09T22:36:36.945Z,0.73
2022-09-09T22:39:06.287Z,0.73
2022-09-09T22:41:34.876Z,0.55
2022-09-09T22:44:03.883Z,0.63
2022-09-09T22:46:32.587Z,0.50
2022-09-09T22:49:03.521Z,0.80
2022-09-09T22:51:34.919Z,0.98
2022-09-09T22:54:03.695Z,1.13
2022-09-09T22:56:32.370Z,0.80
2022-09-09T22:59:01.260Z,0.60
2022-09-09T23:01:30.823Z,1.27
2022-09-09T23:04:02.888Z,1.15
2022-09-09T23:06:33.484Z,1.30
2022-09-09T23:09:03.970Z,1.08
2022-09-09T23:11:34.370Z,1.00
2022-09-09T23:14:04.440Z,1.40
2022-09-09T23:16:35.570Z,1.00
2022-09-09T23:21:34.273Z,0.68
2022-09-09T23:24:03.392Z,1.38
2022-09-09T23:26:32.051Z,1.13
2022-09-09T23:29:02.511Z,0.80
2022-09-09T23:31:34.327Z,0.80
2022-09-09T23:34:03.280Z,1.13
2022-09-09T23:36:33.807Z,0.93
2022-09-09T23:39:05.389Z,0.80
2022-09-09T23:41:35.474Z,0.68
2022-09-09T23:44:04.427Z,1.17
2022-09-09T23:46:34.872Z,1.45
2022-09-09T23:49:04.241Z,1.00
2022-09-09T23:51:34.972Z,0.80
2022-09-09T23:54:04.960Z,0.77
2022-09-09T23:56:37.282Z,0.80
2022-09-09T23:59:06.521Z,0.73
